Henning, Minnesota
Current Conditions -  °F | °C
As of 1:53 AM on Sunday 28 Dec 2014 (Local Time) from KADC Reporting Station
Overcast Overcast  
Wind Chill: 21°   Ceiling: 1400
Heat Index: 21°   Visibility: 10mi
Dew Point: 18°   Wind: 0mph
Humidity: 86%   Direction: NA
Pressure: 30"   Gusts: NA
Location:  46.32°N, 95.45°W
Report Text: KADC 280753Z AUTO 00000KT 10SM OVC014 M06/M08 A3000 RMK AO2
Loading
Personal Weather Stations






























Interactive Weather Map New forecast layout! Learn more

10-Day Weather Forecast

Advertisements
Track Severe Weather on mobile